Thomson Majesty — 9HA2188 — position and weather

sailwx.info

Track history (hours):
 
Tides and Currents Weather Stations Pressure Air Temp Water Temp Dewpoint Dewpoint Depression Visibility Wind Speed Wind Dir Waves Ship Positions

Thomson Majesty

Last reported at 2017-Sep-26 03:58 UTC. Time now 2017-Sep-26 04:06 UTC.
Position N 39°33' E 002°38'.

Length 207 m; draft 6.2 m.

Type: Ship. MMSI: 248124000.

Date/timePositionNaut miles runAvg speedWind from/ knotsBaromVisibWave heightAir tempDewpointWater temp
2017-Sep-26 03:58N 39°33' E 002°38'0 0.0
2017-Sep-26 03:30N 39°33' E 002°38'1 1.5
2017-Sep-26 03:00N 39°32' E 002°39'714.5
2017-Sep-26 02:30N 39°26' E 002°34'612.4
2017-Sep-26 02:00N 39°25' E 002°26'612.2
2017-Sep-26 01:31N 39°29' E 002°20'612.1
2017-Sep-26 01:00N 39°34' E 002°15'611.7
2017-Sep-26 00:30N 39°39' E 002°14'612.2
2017-Sep-26 00:00N 39°46' E 002°13'612.3
2017-Sep-25 23:30N 39°52' E 002°13'612.4
2017-Sep-25 23:00N 39°58' E 002°13'612.4
2017-Sep-25 22:31N 40°04' E 002°13'612.5
2017-Sep-25 22:00N 40°10' E 002°13'612.5
2017-Sep-25 21:30N 40°16' E 002°13'612.7
2017-Sep-25 21:01N 40°23' E 002°12'612.5
2017-Sep-25 20:30N 40°29' E 002°12'611.6
2017-Sep-25 20:00N 40°35' E 002°12'611.5
2017-Sep-25 19:30N 40°41' E 002°12'611.8
2017-Sep-25 19:00N 40°47' E 002°12'611.9
2017-Sep-25 18:30N 40°53' E 002°12'612.0
2017-Sep-25 18:00N 40°58' E 002°11'612.0
2017-Sep-25 17:30N 41°04' E 002°11'612.2
2017-Sep-25 17:00N 41°10' E 002°11'611.9
2017-Sep-25 16:30N 41°17' E 002°11'5 0.7
2017-Sep-25 09:23N 41°21' E 002°11'0 0.0
2017-Sep-25 06:29N 41°21' E 002°11'0 0.0
2017-Sep-25 05:53N 41°21' E 002°11'0 0.0
2017-Sep-25 05:30N 41°21' E 002°11'3 5.8
2017-Sep-25 05:00N 41°19' E 002°10'612.3
2017-Sep-25 04:30N 41°19' E 002°19'917.1
2017-Sep-25 04:00N 41°23' E 002°29'917.3
2017-Sep-25 03:30N 41°28' E 002°38'817.0
2017-Sep-25 03:00N 41°32' E 002°48'917.0
2017-Sep-25 02:30N 41°36' E 002°58'713.3
2017-Sep-25 01:58N 41°40' E 003°06'711.7
2017-Sep-25 01:24N 41°43' E 003°14'511.7
2017-Sep-25 00:59N 41°46' E 003°19'611.8
2017-Sep-25 00:30N 41°50' E 003°25'612.9
2017-Sep-25 00:00N 41°54' E 003°31'713.0
2017-Sep-24 23:30N 41°59' E 003°37'713.3
2017-Sep-24 23:00N 42°04' E 003°43'713.6
2017-Sep-24 22:30N 42°09' E 003°49'713.5
2017-Sep-24 22:00N 42°14' E 003°55'713.2
2017-Sep-24 21:30N 42°19' E 004°01'713.2
2017-Sep-24 21:00N 42°24' E 004°07'713.1
2017-Sep-24 20:30N 42°29' E 004°13'713.2
2017-Sep-24 20:00N 42°34' E 004°19'713.3
2017-Sep-24 19:30N 42°39' E 004°25'713.7
2017-Sep-24 19:00N 42°44' E 004°31'713.5
2017-Sep-24 18:30N 42°49' E 004°37'713.5
2017-Sep-24 18:00N 42°54' E 004°43'713.0
2017-Sep-24 17:30N 42°59' E 004°49'713.7
2017-Sep-24 17:00N 43°04' E 004°56'713.5
2017-Sep-24 16:30N 43°09' E 005°02'713.5
2017-Sep-24 16:00N 43°14' E 005°08'613.0
2017-Sep-24 15:31N 43°18' E 005°14'5 9.6
2017-Sep-24 15:01N 43°21' E 005°20'0 0.1
2017-Sep-24 14:28N 43°21' E 005°20'0 0.0
2017-Sep-24 13:55N 43°21' E 005°20'0 0.0
2017-Sep-24 13:28N 43°21' E 005°20'0 0.0
2017-Sep-24 12:58N 43°21' E 005°20'0 0.0
2017-Sep-24 12:28N 43°21' E 005°20'0 0.0
2017-Sep-24 11:58N 43°21' E 005°20'0 0.0
2017-Sep-24 11:28N 43°21' E 005°20'0 0.0
2017-Sep-24 10:58N 43°21' E 005°20'0 0.0
2017-Sep-24 10:28N 43°21' E 005°20'0 0.0
2017-Sep-24 09:58N 43°21' E 005°20'0 0.0
2017-Sep-24 09:28N 43°21' E 005°20'0 0.0
2017-Sep-24 08:58N 43°21' E 005°20'0 0.0
2017-Sep-24 08:28N 43°21' E 005°20'0 0.0
2017-Sep-24 07:58N 43°21' E 005°20'0 0.0
2017-Sep-24 07:28N 43°21' E 005°20'0 0.0
2017-Sep-24 06:58N 43°21' E 005°20'0 0.0
2017-Sep-24 06:28N 43°21' E 005°20'0 0.0
2017-Sep-24 05:58N 43°21' E 005°20'0 0.2
2017-Sep-24 05:30N 43°20' E 005°20'2 3.6
2017-Sep-24 05:01N 43°21' E 005°18'611.1
2017-Sep-24 04:30N 43°16' E 005°13'714.8
2017-Sep-24 04:00N 43°09' E 005°13'510.0
2017-Sep-24 03:30N 43°06' E 005°19'510.7
2017-Sep-24 03:00N 43°01' E 005°20'510.6
2017-Sep-24 02:30N 42°57' E 005°25'611.4
2017-Sep-24 02:01N 42°54' E 005°32'611.3
2017-Sep-24 01:30N 42°51' E 005°38'611.5
2017-Sep-24 01:01N 42°49' E 005°45'611.6
2017-Sep-24 00:31N 42°48' E 005°53'711.6
2017-Sep-23 23:54N 42°47' E 006°02'411.4
2017-Sep-23 23:31N 42°46' E 006°09'162 3.6
2017-Sep-22 02:00N 43°15' E 009°46'3 6.8
2017-Sep-22 01:30N 43°16' E 009°42'4 6.8
2017-Sep-22 00:59N 43°18' E 009°37'4 6.9
2017-Sep-22 00:26N 43°19' E 009°33'3 7.1
2017-Sep-22 00:00N 43°20' E 009°29'4 7.2
2017-Sep-21 23:30N 43°21' E 009°24'4 7.1
2017-Sep-21 23:00N 43°22' E 009°19'4 7.1
2017-Sep-21 22:30N 43°23' E 009°14'3 7.0
2017-Sep-21 22:00N 43°24' E 009°10'4 7.6
2017-Sep-21 21:30N 43°23' E 009°05'4 7.4
2017-Sep-21 21:00N 43°22' E 008°60'4 8.1
2017-Sep-21 20:30N 43°21' E 008°54'4 7.9
2017-Sep-21 20:00N 43°20' E 008°49'4 7.6
2017-Sep-21 19:30N 43°19' E 008°44'43 2.6
2017-Sep-21 02:54N 42°37' E 008°31'511.9
2017-Sep-21 02:31N 42°37' E 008°25'612.2
2017-Sep-21 02:01N 42°38' E 008°16'612.5
2017-Sep-21 01:30N 42°39' E 008°08'712.3
2017-Sep-21 00:58N 42°39' E 007°59'612.3
2017-Sep-21 00:30N 42°39' E 007°51'611.9
2017-Sep-21 00:00N 42°40' E 007°43'611.9
2017-Sep-20 23:31N 42°40' E 007°35'611.9
2017-Sep-20 23:00N 42°40' E 007°27'711.7
2017-Sep-20 22:27N 42°41' E 007°18'511.8
2017-Sep-20 22:01N 42°41' E 007°11'612.0
2017-Sep-20 21:30N 42°42' E 007°03'612.2
2017-Sep-20 21:01N 42°42' E 006°55'612.8
2017-Sep-20 20:31N 42°43' E 006°46'612.6
2017-Sep-20 20:00N 42°43' E 006°37'612.3
2017-Sep-20 19:31N 42°44' E 006°29'612.3
2017-Sep-20 19:00N 42°44' E 006°21'612.4
2017-Sep-20 18:31N 42°45' E 006°12'612.1
2017-Sep-20 18:00N 42°45' E 006°04'611.9
2017-Sep-20 17:30N 42°45' E 005°56'611.8
2017-Sep-20 17:00N 42°46' E 005°48'612.3
2017-Sep-20 16:30N 42°46' E 005°40'612.6
2017-Sep-20 16:00N 42°47' E 005°31'611.2
2017-Sep-20 15:30N 42°47' E 005°23'611.9
2017-Sep-20 15:01N 42°47' E 005°15'1211.9
2017-Sep-20 14:01N 42°47' E 004°59'816.7
2017-Sep-20 13:30N 42°46' E 004°48'816.2
2017-Sep-20 13:01N 42°46' E 004°37'816.6
2017-Sep-20 12:30N 42°45' E 004°26'816.8
2017-Sep-20 12:01N 42°44' E 004°14'917.0
2017-Sep-20 11:30N 42°43' E 004°03'10315.0
2017-Sep-20 04:39N 41°13' E 002°57'417.0
2017-Sep-20 04:26N 41°09' E 002°55'716.9
2017-Sep-20 04:01N 41°02' E 002°52'916.6
2017-Sep-20 03:30N 40°54' E 002°48'816.7
2017-Sep-20 03:00N 40°46' E 002°45'817.0
2017-Sep-20 02:30N 40°38' E 002°42'816.9
2017-Sep-20 02:01N 40°30' E 002°38'816.9
2017-Sep-20 01:31N 40°22' E 002°35'816.7
2017-Sep-20 01:00N 40°14' E 002°31'816.7
2017-Sep-20 00:30N 40°06' E 002°28'816.6
2017-Sep-20 00:00N 39°59' E 002°24'917.0
2017-Sep-19 23:30N 39°50' E 002°21'817.0
2017-Sep-19 23:01N 39°42' E 002°17'917.1
2017-Sep-19 22:30N 39°34' E 002°15'917.6
2017-Sep-19 22:00N 39°28' E 002°23'815.9
2017-Sep-19 21:30N 39°27' E 002°33'815.2
2017-Sep-19 21:00N 39°33' E 002°39'1 1.0
2017-Sep-19 20:28N 39°33' E 002°38'0 0.0
2017-Sep-19 19:58N 39°33' E 002°38'0 0.0
2017-Sep-19 19:28N 39°33' E 002°38'0 0.0
2017-Sep-19 18:58N 39°33' E 002°38'0 0.0
2017-Sep-19 18:28N 39°33' E 002°38'0 0.0
2017-Sep-19 17:58N 39°33' E 002°38'0 0.0
2017-Sep-19 17:28N 39°33' E 002°38'0 0.0
2017-Sep-19 16:58N 39°33' E 002°38'0 0.0
2017-Sep-19 16:28N 39°33' E 002°38'0 0.0
2017-Sep-19 15:58N 39°33' E 002°38'0 0.0
2017-Sep-19 15:28N 39°33' E 002°38'0 0.0
2017-Sep-19 14:58N 39°33' E 002°38'0 0.0
2017-Sep-19 14:28N 39°33' E 002°38'0 0.0
2017-Sep-19 13:58N 39°33' E 002°38'0 0.0
2017-Sep-19 13:28N 39°33' E 002°38'0 0.0
2017-Sep-19 12:58N 39°33' E 002°38'0 0.0
2017-Sep-19 12:28N 39°33' E 002°38'0 0.0
2017-Sep-19 11:58N 39°33' E 002°38'0 0.0
2017-Sep-19 11:28N 39°33' E 002°38'0 0.0
2017-Sep-19 10:58N 39°33' E 002°38'0 0.0
2017-Sep-19 10:28N 39°33' E 002°38'0 0.0
2017-Sep-19 09:58N 39°33' E 002°38'0 0.0
2017-Sep-19 09:28N 39°33' E 002°38'0 0.0
2017-Sep-19 08:58N 39°33' E 002°38'0 0.0
2017-Sep-19 08:28N 39°33' E 002°38'0 0.0
2017-Sep-19 07:58N 39°33' E 002°38'0 0.0
2017-Sep-19 07:28N 39°33' E 002°38'0 0.0
2017-Sep-19 06:58N 39°33' E 002°38'0 0.0
2017-Sep-19 06:28N 39°33' E 002°38'0 0.0
2017-Sep-19 05:58N 39°33' E 002°38'0 0.0
2017-Sep-19 05:28N 39°33' E 002°38'0 0.0
2017-Sep-19 04:58N 39°33' E 002°38'0 0.0
2017-Sep-19 04:28N 39°33' E 002°38'0 0.0
2017-Sep-19 03:58N 39°33' E 002°38'0 0.0
2017-Sep-19 03:28N 39°33' E 002°38'1 1.4
2017-Sep-19 03:00N 39°33' E 002°39'713.9
2017-Sep-19 02:31N 39°26' E 002°39'611.4
2017-Sep-19 02:00N 39°20' E 002°40'510.7
2017-Sep-19 01:31N 39°15' E 002°43'511.0
2017-Sep-19 01:00N 39°11' E 002°47'510.9
2017-Sep-19 00:31N 39°06' E 002°51'5 9.9
2017-Sep-19 00:01N 39°05' E 002°57'510.5
2017-Sep-18 23:30N 39°05' E 003°04'510.4
2017-Sep-18 23:00N 39°05' E 003°10'510.5
2017-Sep-18 22:30N 39°07' E 003°16'510.7
2017-Sep-18 22:01N 39°10' E 003°22'510.7
2017-Sep-18 21:31N 39°14' E 003°27'610.9
2017-Sep-18 21:00N 39°18' E 003°32'611.1
2017-Sep-18 20:30N 39°21' E 003°38'511.0
2017-Sep-18 20:01N 39°25' E 003°43'711.0
2017-Sep-18 19:24N 39°29' E 003°49'411.0
2017-Sep-18 19:01N 39°32' E 003°54'611.0
2017-Sep-18 18:30N 39°35' E 003°60'  
Track history (hours):
 
Tides and Currents Weather Stations Pressure Air Temp Water Temp Dewpoint Dewpoint Depression Visibility Wind Speed Wind Dir Waves Ship Positions

Thomson Majesty

Last reported at 2017-Sep-26 03:58 UTC. Time now 2017-Sep-26 04:06 UTC.
Position N 39°33' E 002°38'.

Length 207 m; draft 6.2 m.

Type: Ship. MMSI: 248124000.

Date/timePositionNaut miles runAvg speedWind from/ knotsBaromVisibWave heightAir tempDewpointWater temp
2017-Sep-26 03:58N 39°33' E 002°38'0 0.0
2017-Sep-26 03:30N 39°33' E 002°38'1 1.5
2017-Sep-26 03:00N 39°32' E 002°39'714.5
2017-Sep-26 02:30N 39°26' E 002°34'612.4
2017-Sep-26 02:00N 39°25' E 002°26'612.2
2017-Sep-26 01:31N 39°29' E 002°20'612.1
2017-Sep-26 01:00N 39°34' E 002°15'611.7
2017-Sep-26 00:30N 39°39' E 002°14'612.2
2017-Sep-26 00:00N 39°46' E 002°13'612.3
2017-Sep-25 23:30N 39°52' E 002°13'612.4
2017-Sep-25 23:00N 39°58' E 002°13'612.4
2017-Sep-25 22:31N 40°04' E 002°13'612.5
2017-Sep-25 22:00N 40°10' E 002°13'612.5
2017-Sep-25 21:30N 40°16' E 002°13'612.7
2017-Sep-25 21:01N 40°23' E 002°12'612.5
2017-Sep-25 20:30N 40°29' E 002°12'611.6
2017-Sep-25 20:00N 40°35' E 002°12'611.5
2017-Sep-25 19:30N 40°41' E 002°12'611.8
2017-Sep-25 19:00N 40°47' E 002°12'611.9
2017-Sep-25 18:30N 40°53' E 002°12'612.0
2017-Sep-25 18:00N 40°58' E 002°11'612.0
2017-Sep-25 17:30N 41°04' E 002°11'612.2
2017-Sep-25 17:00N 41°10' E 002°11'611.9
2017-Sep-25 16:30N 41°17' E 002°11'5 0.7
2017-Sep-25 09:23N 41°21' E 002°11'0 0.0
2017-Sep-25 06:29N 41°21' E 002°11'0 0.0
2017-Sep-25 05:53N 41°21' E 002°11'0 0.0
2017-Sep-25 05:30N 41°21' E 002°11'3 5.8
2017-Sep-25 05:00N 41°19' E 002°10'612.3
2017-Sep-25 04:30N 41°19' E 002°19'917.1
2017-Sep-25 04:00N 41°23' E 002°29'917.3
2017-Sep-25 03:30N 41°28' E 002°38'817.0
2017-Sep-25 03:00N 41°32' E 002°48'917.0
2017-Sep-25 02:30N 41°36' E 002°58'713.3
2017-Sep-25 01:58N 41°40' E 003°06'711.7
2017-Sep-25 01:24N 41°43' E 003°14'511.7
2017-Sep-25 00:59N 41°46' E 003°19'611.8
2017-Sep-25 00:30N 41°50' E 003°25'612.9
2017-Sep-25 00:00N 41°54' E 003°31'713.0
2017-Sep-24 23:30N 41°59' E 003°37'713.3
2017-Sep-24 23:00N 42°04' E 003°43'713.6
2017-Sep-24 22:30N 42°09' E 003°49'713.5
2017-Sep-24 22:00N 42°14' E 003°55'713.2
2017-Sep-24 21:30N 42°19' E 004°01'713.2
2017-Sep-24 21:00N 42°24' E 004°07'713.1
2017-Sep-24 20:30N 42°29' E 004°13'713.2
2017-Sep-24 20:00N 42°34' E 004°19'713.3
2017-Sep-24 19:30N 42°39' E 004°25'713.7
2017-Sep-24 19:00N 42°44' E 004°31'713.5
2017-Sep-24 18:30N 42°49' E 004°37'713.5
2017-Sep-24 18:00N 42°54' E 004°43'713.0
2017-Sep-24 17:30N 42°59' E 004°49'713.7
2017-Sep-24 17:00N 43°04' E 004°56'713.5
2017-Sep-24 16:30N 43°09' E 005°02'713.5
2017-Sep-24 16:00N 43°14' E 005°08'613.0
2017-Sep-24 15:31N 43°18' E 005°14'5 9.6
2017-Sep-24 15:01N 43°21' E 005°20'0 0.1
2017-Sep-24 14:28N 43°21' E 005°20'0 0.0
2017-Sep-24 13:55N 43°21' E 005°20'0 0.0
2017-Sep-24 13:28N 43°21' E 005°20'0 0.0
2017-Sep-24 12:58N 43°21' E 005°20'0 0.0
2017-Sep-24 12:28N 43°21' E 005°20'0 0.0
2017-Sep-24 11:58N 43°21' E 005°20'0 0.0
2017-Sep-24 11:28N 43°21' E 005°20'0 0.0
2017-Sep-24 10:58N 43°21' E 005°20'0 0.0
2017-Sep-24 10:28N 43°21' E 005°20'0 0.0
2017-Sep-24 09:58N 43°21' E 005°20'0 0.0
2017-Sep-24 09:28N 43°21' E 005°20'0 0.0
2017-Sep-24 08:58N 43°21' E 005°20'0 0.0
2017-Sep-24 08:28N 43°21' E 005°20'0 0.0
2017-Sep-24 07:58N 43°21' E 005°20'0 0.0
2017-Sep-24 07:28N 43°21' E 005°20'0 0.0
2017-Sep-24 06:58N 43°21' E 005°20'0 0.0
2017-Sep-24 06:28N 43°21' E 005°20'0 0.0
2017-Sep-24 05:58N 43°21' E 005°20'0 0.2
2017-Sep-24 05:30N 43°20' E 005°20'2 3.6
2017-Sep-24 05:01N 43°21' E 005°18'611.1
2017-Sep-24 04:30N 43°16' E 005°13'714.8
2017-Sep-24 04:00N 43°09' E 005°13'510.0
2017-Sep-24 03:30N 43°06' E 005°19'510.7
2017-Sep-24 03:00N 43°01' E 005°20'510.6
2017-Sep-24 02:30N 42°57' E 005°25'611.4
2017-Sep-24 02:01N 42°54' E 005°32'611.3
2017-Sep-24 01:30N 42°51' E 005°38'611.5
2017-Sep-24 01:01N 42°49' E 005°45'611.6
2017-Sep-24 00:31N 42°48' E 005°53'711.6
2017-Sep-23 23:54N 42°47' E 006°02'411.4
2017-Sep-23 23:31N 42°46' E 006°09'162 3.6
2017-Sep-22 02:00N 43°15' E 009°46'3 6.8
2017-Sep-22 01:30N 43°16' E 009°42'4 6.8
2017-Sep-22 00:59N 43°18' E 009°37'4 6.9
2017-Sep-22 00:26N 43°19' E 009°33'3 7.1
2017-Sep-22 00:00N 43°20' E 009°29'4 7.2
2017-Sep-21 23:30N 43°21' E 009°24'4 7.1
2017-Sep-21 23:00N 43°22' E 009°19'4 7.1
2017-Sep-21 22:30N 43°23' E 009°14'3 7.0
2017-Sep-21 22:00N 43°24' E 009°10'4 7.6
2017-Sep-21 21:30N 43°23' E 009°05'4 7.4
2017-Sep-21 21:00N 43°22' E 008°60'4 8.1
2017-Sep-21 20:30N 43°21' E 008°54'4 7.9
2017-Sep-21 20:00N 43°20' E 008°49'4 7.6
2017-Sep-21 19:30N 43°19' E 008°44'43 2.6
2017-Sep-21 02:54N 42°37' E 008°31'511.9
2017-Sep-21 02:31N 42°37' E 008°25'612.2
2017-Sep-21 02:01N 42°38' E 008°16'612.5
2017-Sep-21 01:30N 42°39' E 008°08'712.3
2017-Sep-21 00:58N 42°39' E 007°59'612.3
2017-Sep-21 00:30N 42°39' E 007°51'611.9
2017-Sep-21 00:00N 42°40' E 007°43'611.9
2017-Sep-20 23:31N 42°40' E 007°35'611.9
2017-Sep-20 23:00N 42°40' E 007°27'711.7
2017-Sep-20 22:27N 42°41' E 007°18'511.8
2017-Sep-20 22:01N 42°41' E 007°11'612.0
2017-Sep-20 21:30N 42°42' E 007°03'612.2
2017-Sep-20 21:01N 42°42' E 006°55'612.8
2017-Sep-20 20:31N 42°43' E 006°46'612.6
2017-Sep-20 20:00N 42°43' E 006°37'612.3
2017-Sep-20 19:31N 42°44' E 006°29'612.3
2017-Sep-20 19:00N 42°44' E 006°21'612.4
2017-Sep-20 18:31N 42°45' E 006°12'612.1
2017-Sep-20 18:00N 42°45' E 006°04'611.9
2017-Sep-20 17:30N 42°45' E 005°56'611.8
2017-Sep-20 17:00N 42°46' E 005°48'612.3
2017-Sep-20 16:30N 42°46' E 005°40'612.6
2017-Sep-20 16:00N 42°47' E 005°31'611.2
2017-Sep-20 15:30N 42°47' E 005°23'611.9
2017-Sep-20 15:01N 42°47' E 005°15'1211.9
2017-Sep-20 14:01N 42°47' E 004°59'816.7
2017-Sep-20 13:30N 42°46' E 004°48'816.2
2017-Sep-20 13:01N 42°46' E 004°37'816.6
2017-Sep-20 12:30N 42°45' E 004°26'816.8
2017-Sep-20 12:01N 42°44' E 004°14'917.0
2017-Sep-20 11:30N 42°43' E 004°03'10315.0
2017-Sep-20 04:39N 41°13' E 002°57'417.0
2017-Sep-20 04:26N 41°09' E 002°55'716.9
2017-Sep-20 04:01N 41°02' E 002°52'916.6
2017-Sep-20 03:30N 40°54' E 002°48'816.7
2017-Sep-20 03:00N 40°46' E 002°45'817.0
2017-Sep-20 02:30N 40°38' E 002°42'816.9
2017-Sep-20 02:01N 40°30' E 002°38'816.9
2017-Sep-20 01:31N 40°22' E 002°35'816.7
2017-Sep-20 01:00N 40°14' E 002°31'816.7
2017-Sep-20 00:30N 40°06' E 002°28'816.6
2017-Sep-20 00:00N 39°59' E 002°24'917.0
2017-Sep-19 23:30N 39°50' E 002°21'817.0
2017-Sep-19 23:01N 39°42' E 002°17'917.1
2017-Sep-19 22:30N 39°34' E 002°15'917.6
2017-Sep-19 22:00N 39°28' E 002°23'815.9
2017-Sep-19 21:30N 39°27' E 002°33'815.2
2017-Sep-19 21:00N 39°33' E 002°39'1 1.0
2017-Sep-19 20:28N 39°33' E 002°38'0 0.0
2017-Sep-19 19:58N 39°33' E 002°38'0 0.0
2017-Sep-19 19:28N 39°33' E 002°38'0 0.0
2017-Sep-19 18:58N 39°33' E 002°38'0 0.0
2017-Sep-19 18:28N 39°33' E 002°38'0 0.0
2017-Sep-19 17:58N 39°33' E 002°38'0 0.0
2017-Sep-19 17:28N 39°33' E 002°38'0 0.0
2017-Sep-19 16:58N 39°33' E 002°38'0 0.0
2017-Sep-19 16:28N 39°33' E 002°38'0 0.0
2017-Sep-19 15:58N 39°33' E 002°38'0 0.0
2017-Sep-19 15:28N 39°33' E 002°38'0 0.0
2017-Sep-19 14:58N 39°33' E 002°38'0 0.0
2017-Sep-19 14:28N 39°33' E 002°38'0 0.0
2017-Sep-19 13:58N 39°33' E 002°38'0 0.0
2017-Sep-19 13:28N 39°33' E 002°38'0 0.0
2017-Sep-19 12:58N 39°33' E 002°38'0 0.0
2017-Sep-19 12:28N 39°33' E 002°38'0 0.0
2017-Sep-19 11:58N 39°33' E 002°38'0 0.0
2017-Sep-19 11:28N 39°33' E 002°38'0 0.0
2017-Sep-19 10:58N 39°33' E 002°38'0 0.0
2017-Sep-19 10:28N 39°33' E 002°38'0 0.0
2017-Sep-19 09:58N 39°33' E 002°38'0 0.0
2017-Sep-19 09:28N 39°33' E 002°38'0 0.0
2017-Sep-19 08:58N 39°33' E 002°38'0 0.0
2017-Sep-19 08:28N 39°33' E 002°38'0 0.0
2017-Sep-19 07:58N 39°33' E 002°38'0 0.0
2017-Sep-19 07:28N 39°33' E 002°38'0 0.0
2017-Sep-19 06:58N 39°33' E 002°38'0 0.0
2017-Sep-19 06:28N 39°33' E 002°38'0 0.0
2017-Sep-19 05:58N 39°33' E 002°38'0 0.0
2017-Sep-19 05:28N 39°33' E 002°38'0 0.0
2017-Sep-19 04:58N 39°33' E 002°38'0 0.0
2017-Sep-19 04:28N 39°33' E 002°38'0 0.0
2017-Sep-19 03:58N 39°33' E 002°38'0 0.0
2017-Sep-19 03:28N 39°33' E 002°38'1 1.4
2017-Sep-19 03:00N 39°33' E 002°39'713.9
2017-Sep-19 02:31N 39°26' E 002°39'611.4
2017-Sep-19 02:00N 39°20' E 002°40'510.7
2017-Sep-19 01:31N 39°15' E 002°43'511.0
2017-Sep-19 01:00N 39°11' E 002°47'510.9
2017-Sep-19 00:31N 39°06' E 002°51'5 9.9
2017-Sep-19 00:01N 39°05' E 002°57'510.5
2017-Sep-18 23:30N 39°05' E 003°04'510.4
2017-Sep-18 23:00N 39°05' E 003°10'510.5
2017-Sep-18 22:30N 39°07' E 003°16'510.7
2017-Sep-18 22:01N 39°10' E 003°22'510.7
2017-Sep-18 21:31N 39°14' E 003°27'610.9
2017-Sep-18 21:00N 39°18' E 003°32'611.1
2017-Sep-18 20:30N 39°21' E 003°38'511.0
2017-Sep-18 20:01N 39°25' E 003°43'711.0
2017-Sep-18 19:24N 39°29' E 003°49'411.0
2017-Sep-18 19:01N 39°32' E 003°54'611.0
2017-Sep-18 18:30N 39°35' E 003°60'  

Dump ship's entire track history